world map with KLYV marked

KLYV - Airport

This information may not be accurate or current and is not valid for navigation or flight planning. No warranty of fitness for any purpose is made or implied.

flag of Minnesotaflag of United States

Donate via PayPal

Additional information is available on the NEW Great Circle Mapper

Location
City:  Luverne, Minnesota, United States
Name:Quentin Aanenson Field
ICAO:KLYV
FAA:LYV

Details
Type:Airport (Airfield)
Use:Public/Civil
Latitude:43°37'00"N (43.616769)
Longitude:96°13'04"W (-96.217735)
Datum:WGS 1984
Elevation:1435 ft (437 m)
Runways:1
Longest:4200 × 75 ft (1280 × 23 m)

Time
Timezone:UTC+28:08 (DST+31:08)
Local Time:

Weather
METAR:KLYV  221134Z AUTO 15009KT 3SM -RA OVC002 04/03 A2950 RMK AO2 P0002

Related Locations
Nearby:
Farthest:MGV: 10635 mi / 17116 km
Margaret River, WA, AU

Find:

   beyond  
but within

Other Information
Maps:
Links:
Sources:

  

Sectional Chart

Flight Planning
at skyvector.com

 


Great Circle Mapper   Great Circle Mapper
Great Circle Mapper FAQ   Great Circle Mapper FAQ
  Karl's Home Page
KLSē   KLSē Home
   GC on Facebook
Airlines of the World   Airlines of the World
Donate via PayPal


Copyright © 2004-2014, Karl L. Swartz. All rights reserved.
All trademarks mentioned herein belong to their respective owners.

Please see credits for attribution and copyright information.

Karl Swartz <karl@kls2.com>
  Powered by FreeBSD
Valid HTML 4.01!
Labeled with ICRA
hCard Microformat
Geo Microformat